首页
METAR-TAF:

METAR-TAF

机场 :

Fourchambault

讷韦尔, 法国

纬度: 47-00N, 经度: 003-06E, 海拔: 180米

当前天气观测

该预报发布于29分钟前的14:00 UTC
风速5节,风向西南,在东南西转西北之间变化
温度 32°C
湿度 32%
气压 1018 hPa
能见度10公里或以上
1500米以下无云,无积雨云

METAR: LFQG 251400Z AUTO 22005KT 140V300 CAVOK 32/13 Q1018

时间: 16:29 (14:29 UTC)


TAF: 丢失

超过4000个机场的气象观测和天气预报(METAR&TAF报告)。

可查询的气象台以黄色和红色小点在地图上表示。

将鼠标移到小点上方,可查看气象台名称。

然后点击查看天气观测和预报。

如需切换地图:点击带黑十字的绿色按钮放大地图;点击带横线的绿色按钮缩小地图;或者点击绿色箭头查看邻近地区的地图。


METAR-TAF: